• Join FlightAware (Why Join?)
  • Login
  • US Flag 
05:16PM EDT


 

Airport Tracker/Info


-or-


 

Live Flight TrackerFlight Track Log ✈ AWE3921 ✈ 13-Apr-2013 ✈ KDCA - KCAE

Flight Track Log - Related Links

Times and Time Zones

All times are in EDT time to prevent confusion due to time zone crossing. See the AWE3921 flight status page for this flight to view local times or setup timezone preferences in your user account.

Time Position Orientation Groundspeed Altitude Reporting Facility
EDT Latitude Longitude Course Direction KTS MPH feet Rate Location/Type
02:03PM 38.6095 -77.2547 215° Southwest  Level Estimated
02:04PM 38.5287 -77.3268 215° Southwest  Level Estimated
02:05PM 38.4477 -77.3986 215° Southwest  Level Estimated
02:06PM 38.3668 -77.4703 215° Southwest  Level Estimated
02:07PM 38.2858 -77.5419 215° Southwest  Level Estimated
02:08PM 38.2047 -77.6132 215° Southwest  Level Estimated
02:09PM 38.1236 -77.6845 215° Southwest  Level Estimated
02:10PM 38.0424 -77.7555 215° Southwest  Level Estimated
02:11PM 37.9613 -77.8264 215° Southwest  Level Estimated
02:12PM 37.8800 -77.8972 215° Southwest  Level Estimated
02:13PM 37.7988 -77.9678 214° Southwest  Level Estimated
02:14PM 37.7175 -78.0382 214° Southwest  Level Estimated
02:15PM 37.6361 -78.1085 214° Southwest  Level Estimated
02:16PM 37.5547 -78.1786 214° Southwest  Level Estimated
02:17PM 37.4733 -78.2486 214° Southwest  Level Estimated
02:18PM 37.3918 -78.3184 214° Southwest  Level Estimated
02:19PM 37.3103 -78.3881 214° Southwest  Level Estimated
02:20PM 37.2287 -78.4576 214° Southwest  Level Estimated
02:21PM 37.1471 -78.5270 214° Southwest  Level Estimated
02:22PM 37.0655 -78.5962 214° Southwest  Level Estimated
02:23PM 36.9838 -78.6653 214° Southwest  Level Estimated
02:24PM 36.9021 -78.7342 214° Southwest  Level Estimated
02:25PM 36.8203 -78.8030 214° Southwest  Level Estimated
02:26PM 36.7385 -78.8716 214° Southwest  Level Estimated
02:27PM 36.6567 -78.9401 214° Southwest  Level Estimated
02:28PM 36.5748 -79.0084 214° Southwest  Level Estimated
02:29PM 36.4929 -79.0766 214° Southwest  Level Estimated
02:30PM 36.4109 -79.1447 214° Southwest  Level Estimated
02:31PM 36.3289 -79.2126 214° Southwest  Level Estimated
02:32PM 36.2469 -79.2803 214° Southwest  Level Estimated
02:33PM 36.1648 -79.3480 214° Southwest  Level Estimated
02:34PM 36.0827 -79.4154 214° Southwest  Level Estimated
02:35PM 36.0006 -79.4828 214° Southwest  Level Estimated
02:36PM 35.9184 -79.5500 214° Southwest  Level Estimated
02:37PM 35.8362 -79.6170 213° Southwest  Level Estimated
02:38PM 35.7539 -79.6840 213° Southwest  Level Estimated
02:39PM 35.6716 -79.7507 213° Southwest  Level Estimated
02:40PM 35.5893 -79.8174 213° Southwest  Level Estimated
02:41PM 35.5069 -79.8839 213° Southwest  Level Estimated
02:42PM 35.4245 -79.9502 213° Southwest  Level Estimated
02:43PM 35.3421 -80.0165 213° Southwest  Level Estimated
02:44PM 35.2596 -80.0826 213° Southwest  Level Estimated
02:45PM 35.1771 -80.1486 213° Southwest  Level Estimated
02:46PM 35.0945 -80.2144 213° Southwest  Level Estimated
02:47PM 35.0119 -80.2801 213° Southwest  Level Estimated
02:48PM 34.9293 -80.3457 213° Southwest  Level Estimated
02:49PM 34.8467 -80.4111 213° Southwest  Level Estimated
02:50PM 34.7640 -80.4764 213° Southwest  Level Estimated
02:51PM 34.6813 -80.5416 213° Southwest  Level Estimated
02:52PM 34.5985 -80.6066 213° Southwest  Level Estimated
02:53PM 34.5157 -80.6715 213° Southwest  Level Estimated
02:54PM 34.4329 -80.7363 213° Southwest  Level Estimated
02:55PM 34.3500 -80.8009 213° Southwest  Level Estimated
02:56PM 34.2671 -80.8655 213° Southwest  Level Estimated
02:57PM 34.1842 -80.9299 213° Southwest  Level Estimated
02:58PM 34.1012 -80.9942 213° Southwest  Level Estimated
02:59PM 34.0182 -81.0583 213° Southwest  Level Estimated
03:00PM 33.9388 -81.1195 213° Southwest  Level Estimated
03:01PM 33.9388 -81.1195 29° Northeast  Level Estimated
03:02PM 33.9388 -81.1195 29° Northeast  Level Estimated
03:03PM 33.9388 -81.1195 29° Northeast  Level Estimated
03:04PM 33.9388 -81.1195 29° Northeast  Level Estimated
03:05PM 33.9388 -81.1195 29° Northeast  Level Estimated
03:06PM 33.9388 -81.1195 29° Northeast  Level Estimated
03:07PM 33.9388 -81.1195 29° Northeast  Level Estimated
03:08PM 33.9388 -81.1195 29° Northeast  Level Estimated
03:09PM 33.9388 -81.1195 29° Northeast  Level Estimated
03:10PM 33.9388 -81.1195 29° Northeast  Level Estimated
03:11PM 33.9388 -81.1195 29° Northeast  Level Estimated
03:12PM 33.9388 -81.1195 29° Northeast  Level Estimated